Impacts TAF Board
For situational awareness. Not to be used for flight planning purposes.
IDs:

KBIX - Biloxi/Keesler AFB, MS, US

Issued at 1000 UTC 23 Sep 2020
Updated at 1626 UTC 23 Sep 2020
Potential Impact None Slight Moderate High
Time1556Z 23/17Z 23/18Z 23/19Z 23/20Z 23/21Z 23/22Z 23/23Z 24/00Z 24/01Z 24/02Z 24/03Z 24/04Z 24/05Z>>
Type OBS PRVL PRVL PRVL PRVL PRVL PRVL PRVL PRVL PRVL PRVL PRVL PRVL PRVL
VIS 10 4.97 4.97 4.97 4.97 4.97 4.97 4.97 4.97 4.97 4.97 4.97 4.97 4.97
CIG 160 20 20 20 20 20 20 20 20 20 20 20 20 20
Cover BKN BKN BKN BKN BKN BKN BKN BKN BKN BKN BKN BKN BKN BKN
FltCat VFR MVFR MVFR MVFR MVFR MVFR MVFR MVFR MVFR MVFR MVFR MVFR MVFR MVFR
WX -- -SHRA -SHRA -SHRA -SHRA -SHRA -SHRA -SHRA -SHRA -SHRA -SHRA -SHRA -SHRA -SHRA
WDir 120 120 120 120 120 120 120 120 120 120 120 120 120 120
WSpd 15 15 15 15 15 15 15 15 15 15 15 15 15 15
WGst 20 25 25 25 25 25 25 25 25 25 25 25 25 25
Raw TAF
TAF KBIX 231000Z 2310/2416 10009KT 9999 BKN030 QNH2994INS
  BECMG 2314/2315 12012G18KT 9999 VCSH BKN040 QNH2986INS
  BECMG 2316/2317 12015G25KT 8000 -SHRA BKN020 QNH2982INS TX27/2316Z TN20/2311Z


Raw METAR
KBIX 231556Z AUTO 12015G20KT 10SM FEW027 BKN160 28/23 A2994 RMK AO2 SLP141 T02760229 $
KBIX 231456Z AUTO 12012KT 10SM FEW021 27/22 A2995 RMK AO2 SLP145 T02680220 53002 $
KBIX 231356Z AUTO 11007KT 10SM BKN048 23/20 A2995 RMK AO2 SLP145 T02270202 $

METAR Board
For situational awareness. Not to be used for flight planning purposes.